Time;durP1;ratioP1;P1;durP2;ratioP2;P2;SDS_P1;SDS_P2;PMS_P1;PMS_P2;Temp;Humidity;BMP_temperature;BMP_pressure;BME280_temperature;BME280_humidity;BME280_pressure;Samples;Min_cycle;Max_cycle;Signal;HPM_P1;HPM_P2
2022/09/14 00:02:02;;;;;;;3.10;1.70;;;15.90;99.90;;;;;;5019945;28;20559;-52
2022/09/14 00:04:29;;;;;;;4.50;1.93;;;15.80;99.90;;;;;;5019431;28;20480;-55
2022/09/14 00:06:56;;;;;;;3.50;1.80;;;15.80;99.90;;;;;;5019391;28;20897;-48
2022/09/14 00:09:28;;;;;;;2.03;1.70;;;15.80;99.90;;;;;;5019298;28;20524;-48
2022/09/14 00:11:55;;;;;;;2.10;1.37;;;15.70;99.90;;;;;;5019311;28;20480;-48
2022/09/14 00:14:24;;;;;;;4.40;2.03;;;15.70;99.90;;;;;;5019595;28;20461;-48
2022/09/14 00:16:51;;;;;;;1.67;1.50;;;15.70;99.90;;;;;;5019122;28;20455;-48
2022/09/14 00:19:20;;;;;;;2.10;1.73;;;15.60;99.90;;;;;;5019256;28;20455;-50
2022/09/14 00:21:51;;;;;;;2.33;1.70;;;15.60;99.90;;;;;;5019165;28;20801;-53
2022/09/14 00:24:18;;;;;;;7.60;1.87;;;15.60;99.90;;;;;;5018989;28;20560;-51
2022/09/14 00:26:46;;;;;;;5.33;1.87;;;15.60;99.90;;;;;;5018841;28;20531;-52
2022/09/14 00:29:13;;;;;;;2.47;2.07;;;15.60;99.90;;;;;;5018946;28;20473;-50
2022/09/14 00:31:40;;;;;;;1.67;1.20;;;15.50;99.90;;;;;;5019003;28;20475;-51
2022/09/14 00:34:15;;;;;;;1.30;1.07;;;15.50;99.90;;;;;;5019037;28;20453;-48
2022/09/14 00:36:46;;;;;;;3.00;1.60;;;15.40;99.90;;;;;;5019290;28;20988;-51
2022/09/14 00:39:14;;;;;;;5.23;1.37;;;15.40;99.90;;;;;;5019088;28;20449;-55
2022/09/14 00:41:43;;;;;;;2.80;1.50;;;15.40;99.90;;;;;;5018843;28;20475;-49
2022/09/14 00:44:43;;;;;;;1.67;1.40;;;15.30;99.90;;;;;;5019235;28;20488;-51
2022/09/14 00:47:13;;;;;;;2.93;1.40;;;15.30;99.90;;;;;;5018635;28;20455;-53
2022/09/14 00:49:42;;;;;;;2.00;1.30;;;15.30;99.90;;;;;;5019188;28;20488;-48
2022/09/14 00:52:15;;;;;;;9.23;1.90;;;15.20;99.90;;;;;;5018780;28;20473;-54
2022/09/14 00:54:45;;;;;;;4.67;2.17;;;15.20;99.90;;;;;;5018927;28;20552;-53
2022/09/14 00:57:12;;;;;;;4.63;1.40;;;15.20;99.90;;;;;;5019087;28;20579;-55
2022/09/14 00:59:42;;;;;;;3.70;1.70;;;15.20;99.90;;;;;;5019189;28;20560;-50
2022/09/14 01:02:13;;;;;;;3.20;1.50;;;15.20;99.90;;;;;;5018842;28;20844;-51
2022/09/14 01:04:41;;;;;;;8.23;2.23;;;15.10;99.90;;;;;;5018764;28;20469;-48
2022/09/14 01:07:19;;;;;;;4.17;1.53;;;15.10;99.90;;;;;;5018544;28;20545;-52
2022/09/14 01:09:53;;;;;;;3.30;1.53;;;15.10;99.90;;;;;;5018274;28;20969;-47
2022/09/14 01:12:29;;;;;;;4.80;2.23;;;15.00;99.90;;;;;;5018813;28;20822;-50
2022/09/14 01:15:04;;;;;;;2.77;1.40;;;15.00;99.90;;;;;;5018638;28;20465;-48
2022/09/14 01:17:45;;;;;;;8.87;2.07;;;15.00;99.90;;;;;;5017902;28;20453;-51
2022/09/14 01:20:20;;;;;;;3.20;1.70;;;15.00;99.90;;;;;;5018446;28;20461;-46
2022/09/14 01:22:52;;;;;;;5.13;1.70;;;14.90;99.90;;;;;;5018597;28;20428;-48
2022/09/14 01:25:35;;;;;;;9.60;1.73;;;14.90;99.90;;;;;;5018291;28;20813;-49
2022/09/14 01:28:10;;;;;;;3.90;2.03;;;14.90;99.90;;;;;;5018920;28;20789;-51
2022/09/14 01:30:42;;;;;;;4.27;1.23;;;14.90;99.90;;;;;;5018066;28;20477;-49
2022/09/14 01:33:15;;;;;;;3.50;1.53;;;14.90;99.90;;;;;;5018783;28;20481;-50
2022/09/14 01:35:46;;;;;;;2.70;1.80;;;14.80;99.90;;;;;;5018304;28;20461;-51
2022/09/14 01:38:18;;;;;;;3.80;2.23;;;14.80;99.90;;;;;;5018493;28;20433;-52
2022/09/14 01:40:48;;;;;;;5.37;1.73;;;14.80;99.90;;;;;;5018622;28;20461;-50
2022/09/14 01:43:21;;;;;;;3.33;1.40;;;14.80;99.90;;;;;;5017853;28;20560;-47
2022/09/14 01:45:51;;;;;;;3.90;1.97;;;14.70;99.90;;;;;;5017893;28;20469;-49
2022/09/14 01:48:22;;;;;;;1.40;0.97;;;14.70;99.90;;;;;;5018435;28;20477;-55
2022/09/14 01:50:53;;;;;;;3.80;2.00;;;14.70;99.90;;;;;;5017503;28;20461;-53
2022/09/14 01:53:24;;;;;;;2.77;1.50;;;14.70;99.90;;;;;;5018062;28;20476;-50
2022/09/14 01:55:55;;;;;;;6.40;1.67;;;14.70;99.90;;;;;;5017889;28;20449;-47
2022/09/14 01:58:30;;;;;;;7.00;1.80;;;14.70;99.90;;;;;;5017944;28;20471;-55
2022/09/14 02:01:01;;;;;;;2.30;1.43;;;14.70;99.90;;;;;;5017371;28;20475;-52
2022/09/14 02:03:31;;;;;;;5.33;2.00;;;14.60;99.90;;;;;;5017200;28;20457;-43
2022/09/14 02:06:05;;;;;;;3.67;1.60;;;14.60;99.90;;;;;;5017452;28;20504;-51
2022/09/14 02:08:33;;;;;;;2.13;1.73;;;14.60;99.90;;;;;;5017758;28;20445;-50
2022/09/14 02:11:01;;;;;;;3.67;2.00;;;14.50;99.90;;;;;;5018377;28;20508;-46
2022/09/14 02:13:29;;;;;;;2.50;1.83;;;14.50;99.90;;;;;;5017764;28;20538;-54
2022/09/14 02:15:56;;;;;;;1.93;1.50;;;14.40;99.90;;;;;;5018363;28;20469;-52
2022/09/14 02:18:23;;;;;;;2.10;1.60;;;14.40;99.90;;;;;;5018123;28;20500;-51
2022/09/14 02:20:54;;;;;;;2.10;1.80;;;14.40;99.90;;;;;;5017729;28;20516;-51
2022/09/14 02:23:21;;;;;;;2.40;1.83;;;14.30;99.90;;;;;;5018584;28;20460;-49
2022/09/14 02:25:51;;;;;;;2.90;2.00;;;14.30;99.90;;;;;;5017698;28;20555;-54
2022/09/14 02:28:21;;;;;;;4.87;2.10;;;14.20;99.90;;;;;;5017500;28;20746;-53
2022/09/14 02:31:03;;;;;;;16.30;2.57;;;14.20;99.90;;;;;;5017525;28;20508;-52
2022/09/14 02:33:36;;;;;;;3.50;2.63;;;14.20;99.90;;;;;;5018070;28;20447;-52
2022/09/14 02:36:11;;;;;;;3.30;2.10;;;14.20;99.90;;;;;;5017802;28;20540;-50
2022/09/14 02:38:46;;;;;;;4.70;2.20;;;14.20;99.90;;;;;;5018505;28;20428;-46
2022/09/14 02:41:20;;;;;;;2.80;2.20;;;14.20;99.90;;;;;;5017691;28;20913;-50
2022/09/14 02:43:54;;;;;;;2.77;1.80;;;14.10;99.90;;;;;;5017551;28;20475;-49
2022/09/14 02:46:27;;;;;;;4.23;2.07;;;14.10;99.90;;;;;;5017999;28;20563;-52
2022/09/14 02:49:03;;;;;;;4.73;1.93;;;14.10;99.90;;;;;;5017542;28;20468;-52
2022/09/14 02:51:35;;;;;;;2.80;2.00;;;14.10;99.90;;;;;;5017395;28;20488;-54
2022/09/14 02:54:06;;;;;;;6.50;2.20;;;14.10;99.90;;;;;;5017379;28;20472;-49
2022/09/14 02:56:35;;;;;;;4.27;2.27;;;14.10;99.90;;;;;;5017232;28;20472;-47
2022/09/14 02:59:02;;;;;;;8.13;2.67;;;14.10;99.90;;;;;;5018107;28;20520;-52
2022/09/14 03:01:34;;;;;;;4.10;2.10;;;14.10;99.90;;;;;;5017581;28;20512;-47
2022/09/14 03:04:01;;;;;;;4.57;1.80;;;14.10;99.90;;;;;;5017292;28;20433;-52
2022/09/14 03:06:28;;;;;;;6.40;3.93;;;14.00;99.90;;;;;;5017167;28;20576;-53
2022/09/14 03:08:55;;;;;;;8.10;2.60;;;14.10;99.90;;;;;;5017477;28;20456;-48
2022/09/14 03:11:25;;;;;;;4.10;2.50;;;14.10;99.90;;;;;;5017407;28;20831;-52
2022/09/14 03:13:52;;;;;;;3.13;2.60;;;14.10;99.90;;;;;;5016952;28;20560;-49
2022/09/14 03:16:19;;;;;;;2.17;1.97;;;14.10;99.90;;;;;;5020972;28;20480;-55
2022/09/14 03:18:47;;;;;;;5.50;2.13;;;14.00;99.90;;;;;;5021255;28;20877;-49
2022/09/14 03:21:16;;;;;;;4.83;2.37;;;14.00;99.90;;;;;;5020904;28;20447;-49
2022/09/14 03:23:46;;;;;;;5.53;1.90;;;14.00;99.90;;;;;;5020876;28;20467;-56
2022/09/14 03:26:15;;;;;;;2.80;1.90;;;14.00;99.90;;;;;;5020640;28;20839;-48
2022/09/14 03:28:42;;;;;;;2.80;1.70;;;14.10;99.90;;;;;;5021106;28;20504;-47
2022/09/14 03:31:13;;;;;;;3.73;2.30;;;14.10;99.90;;;;;;5020990;28;20460;-49
2022/09/14 03:33:40;;;;;;;3.87;1.73;;;14.10;99.90;;;;;;5020455;28;20472;-51
2022/09/14 03:36:14;;;;;;;3.70;2.27;;;14.10;99.90;;;;;;5021203;28;20484;-52
2022/09/14 03:38:43;;;;;;;5.77;1.90;;;14.00;99.90;;;;;;5020501;28;20445;-50
2022/09/14 03:41:11;;;;;;;2.63;1.90;;;14.00;99.90;;;;;;5020640;28;20447;-45
2022/09/14 03:43:38;;;;;;;2.10;1.80;;;14.00;99.90;;;;;;5021026;28;20478;-49
2022/09/14 03:46:06;;;;;;;5.33;1.90;;;14.00;99.90;;;;;;5020655;28;20785;-44
2022/09/14 03:48:33;;;;;;;5.00;2.10;;;14.00;99.90;;;;;;5021063;28;20507;-49
2022/09/14 03:51:01;;;;;;;2.10;1.80;;;14.10;99.90;;;;;;5020229;28;20444;-49
2022/09/14 03:53:29;;;;;;;4.03;1.80;;;14.10;99.90;;;;;;5020515;28;20532;-45
2022/09/14 03:55:56;;;;;;;4.70;2.37;;;14.00;99.90;;;;;;5020509;28;20536;-47
2022/09/14 03:58:23;;;;;;;4.77;2.50;;;14.00;99.90;;;;;;5020485;28;20873;-52
2022/09/14 04:00:50;;;;;;;2.57;1.97;;;14.00;99.90;;;;;;5019358;28;20452;-48
2022/09/14 04:03:18;;;;;;;8.77;2.33;;;14.00;99.90;;;;;;5019829;28;20473;-53
2022/09/14 04:05:55;;;;;;;8.07;2.70;;;13.90;99.90;;;;;;5020374;28;20495;-55
2022/09/14 04:08:22;;;;;;;2.40;1.70;;;13.90;99.90;;;;;;5020547;28;20465;-51
2022/09/14 04:10:50;;;;;;;4.87;2.57;;;13.90;99.90;;;;;;5020238;28;20456;-52
2022/09/14 04:13:17;;;;;;;5.40;2.27;;;13.90;99.90;;;;;;5020801;28;20480;-50
2022/09/14 04:15:43;;;;;;;7.60;2.77;;;13.90;99.90;;;;;;5020486;28;20770;-50
2022/09/14 04:18:11;;;;;;;3.10;2.50;;;13.90;99.90;;;;;;5020501;28;20448;-54
2022/09/14 04:20:37;;;;;;;3.30;2.60;;;13.80;99.90;;;;;;5020119;28;20465;-52
2022/09/14 04:23:04;;;;;;;5.37;2.40;;;13.80;99.90;;;;;;5020724;28;20456;-50
2022/09/14 04:25:31;;;;;;;3.80;2.70;;;13.80;99.90;;;;;;5022535;28;20530;-52
2022/09/14 04:27:59;;;;;;;3.63;2.23;;;13.70;99.90;;;;;;5021662;28;20460;-51
2022/09/14 04:30:26;;;;;;;9.70;2.50;;;13.70;99.90;;;;;;5022170;28;20449;-53
2022/09/14 04:32:54;;;;;;;2.33;2.03;;;13.70;99.90;;;;;;5021730;28;20465;-58
2022/09/14 04:35:21;;;;;;;3.40;2.57;;;13.70;99.90;;;;;;5021854;28;20449;-50
2022/09/14 04:37:47;;;;;;;4.33;2.60;;;13.70;99.90;;;;;;5022291;28;20472;-54
2022/09/14 04:40:14;;;;;;;3.00;2.37;;;13.70;99.90;;;;;;5022438;28;20444;-57
2022/09/14 04:42:41;;;;;;;3.43;2.50;;;13.70;99.90;;;;;;5022826;28;20479;-52
2022/09/14 04:45:11;;;;;;;3.60;2.77;;;13.80;99.90;;;;;;5022423;28;20794;-51
2022/09/14 04:47:38;;;;;;;3.30;1.80;;;13.80;99.90;;;;;;5022025;28;20567;-57
2022/09/14 04:50:05;;;;;;;3.37;2.27;;;13.80;99.90;;;;;;5021826;28;20484;-60
2022/09/14 04:52:32;;;;;;;3.97;2.60;;;13.80;99.90;;;;;;5021375;28;20434;-53
2022/09/14 04:54:59;;;;;;;2.33;1.77;;;13.80;99.90;;;;;;5021315;28;20452;-53
2022/09/14 04:57:26;;;;;;;2.70;2.13;;;13.80;99.90;;;;;;5020384;28;20480;-52
2022/09/14 04:59:53;;;;;;;5.43;1.90;;;13.80;99.90;;;;;;5019700;28;20515;-51
2022/09/14 05:02:21;;;;;;;2.60;1.90;;;13.90;99.90;;;;;;5021044;28;20937;-50
2022/09/14 05:04:48;;;;;;;8.23;2.50;;;13.90;99.90;;;;;;5019746;28;20440;-50
2022/09/14 05:07:14;;;;;;;4.93;2.73;;;13.90;99.90;;;;;;5020273;28;20484;-51
2022/09/14 05:09:41;;;;;;;5.73;2.60;;;14.00;99.90;;;;;;5019301;28;20483;-48
2022/09/14 05:12:08;;;;;;;5.80;1.77;;;14.00;99.90;;;;;;5019070;28;20468;-52
2022/09/14 05:14:35;;;;;;;4.60;2.47;;;14.00;99.90;;;;;;5019048;28;20492;-49
2022/09/14 05:17:03;;;;;;;4.17;2.80;;;14.10;99.90;;;;;;5019322;28;20433;-53
2022/09/14 05:19:31;;;;;;;5.00;2.10;;;14.10;99.90;;;;;;5019092;28;20604;-48
2022/09/14 05:21:58;;;;;;;3.53;2.10;;;14.10;99.90;;;;;;5019582;28;20452;-48
2022/09/14 05:24:25;;;;;;;3.00;2.03;;;14.20;99.90;;;;;;5019369;28;20460;-50
2022/09/14 05:26:53;;;;;;;3.57;1.77;;;14.20;99.90;;;;;;5018950;28;20547;-48
2022/09/14 05:29:19;;;;;;;4.03;2.07;;;14.20;99.90;;;;;;5018811;28;20449;-52
2022/09/14 05:31:46;;;;;;;5.33;2.20;;;14.20;99.90;;;;;;5018884;28;20449;-51
2022/09/14 05:34:14;;;;;;;2.37;1.87;;;14.30;99.90;;;;;;5018695;28;20449;-52
2022/09/14 05:36:42;;;;;;;6.17;2.53;;;14.30;99.90;;;;;;5019053;28;20468;-53
2022/09/14 05:39:10;;;;;;;3.40;2.10;;;14.40;99.90;;;;;;5017476;28;20948;-51
2022/09/14 05:41:37;;;;;;;6.60;2.20;;;14.40;99.90;;;;;;5018899;28;20905;-45
2022/09/14 05:44:05;;;;;;;5.53;1.83;;;14.40;99.90;;;;;;5018459;28;20449;-46
2022/09/14 05:46:31;;;;;;;7.30;2.13;;;14.40;99.90;;;;;;5018679;28;20477;-52
2022/09/14 05:48:58;;;;;;;2.80;1.97;;;14.50;99.90;;;;;;5018523;28;20452;-52
2022/09/14 05:51:27;;;;;;;3.63;2.57;;;14.60;99.90;;;;;;5018565;28;20473;-53
2022/09/14 05:53:56;;;;;;;3.97;2.00;;;14.60;99.90;;;;;;5018258;28;20468;-51
2022/09/14 05:56:25;;;;;;;1.93;1.60;;;14.60;99.90;;;;;;5018347;28;20840;-48
2022/09/14 05:58:52;;;;;;;3.70;1.87;;;14.60;99.90;;;;;;5018132;28;20729;-53
2022/09/14 06:01:21;;;;;;;4.50;2.03;;;14.70;99.90;;;;;;5017859;28;20540;-53
2022/09/14 06:03:49;;;;;;;3.90;2.30;;;14.70;99.90;;;;;;5018632;28;20487;-53
2022/09/14 06:06:18;;;;;;;3.33;1.87;;;14.80;99.90;;;;;;5017998;28;20812;-51
2022/09/14 06:08:45;;;;;;;4.77;2.00;;;14.90;99.90;;;;;;5017917;28;20816;-51
2022/09/14 06:11:15;;;;;;;5.60;2.37;;;14.90;99.90;;;;;;5018315;28;20449;-54
2022/09/14 06:13:42;;;;;;;4.37;2.63;;;15.00;99.90;;;;;;5018032;28;20442;-49
2022/09/14 06:16:11;;;;;;;5.70;2.20;;;15.00;99.90;;;;;;5017573;28;20477;-46
2022/09/14 06:18:40;;;;;;;10.53;2.20;;;15.00;99.90;;;;;;5017588;28;20461;-53
2022/09/14 06:21:09;;;;;;;2.77;2.03;;;15.10;99.90;;;;;;5017656;28;20933;-53
2022/09/14 06:23:37;;;;;;;4.50;2.10;;;15.10;99.90;;;;;;5017375;28;20501;-49
2022/09/14 06:26:05;;;;;;;5.50;2.63;;;15.10;99.90;;;;;;5017742;28;20453;-51
2022/09/14 06:28:37;;;;;;;4.90;1.97;;;15.20;99.90;;;;;;5017358;28;20453;-53
2022/09/14 06:31:06;;;;;;;3.90;2.10;;;15.20;99.90;;;;;;5017659;28;20425;-51
2022/09/14 06:33:33;;;;;;;3.97;1.77;;;15.30;99.90;;;;;;5017625;28;20487;-54
2022/09/14 06:36:02;;;;;;;9.47;2.50;;;15.30;99.90;;;;;;5017850;28;20452;-49
2022/09/14 06:38:30;;;;;;;3.77;1.73;;;15.30;99.90;;;;;;5022062;28;20449;-53
2022/09/14 06:40:58;;;;;;;1.97;1.77;;;15.40;99.90;;;;;;5017246;28;20430;-52
2022/09/14 06:43:26;;;;;;;3.97;2.17;;;15.40;99.90;;;;;;5017386;28;20960;-52
2022/09/14 06:45:59;;;;;;;1.90;1.40;;;15.60;99.90;;;;;;5015122;28;20552;-46
2022/09/14 06:48:26;;;;;;;3.73;1.70;;;15.60;99.90;;;;;;5015197;28;20512;-44
2022/09/14 06:50:53;;;;;;;2.83;1.83;;;15.70;99.90;;;;;;5014805;28;20798;-47
2022/09/14 06:53:20;;;;;;;4.73;1.80;;;15.90;99.90;;;;;;5015147;28;20850;-45
2022/09/14 06:55:47;;;;;;;7.60;2.07;;;16.00;99.90;;;;;;5014893;28;20495;-52
2022/09/14 06:58:14;;;;;;;3.20;2.33;;;16.10;99.90;;;;;;5014066;28;20430;-50
2022/09/14 07:00:41;;;;;;;2.23;1.80;;;16.10;99.90;;;;;;5014140;28;20764;-58
2022/09/14 07:03:09;;;;;;;2.60;2.07;;;16.20;99.90;;;;;;5014525;28;20555;-48
2022/09/14 07:05:36;;;;;;;6.30;2.10;;;16.30;99.90;;;;;;5014860;28;20445;-52
2022/09/14 07:08:03;;;;;;;9.93;2.17;;;16.40;99.90;;;;;;5015180;28;20499;-49
2022/09/14 07:10:30;;;;;;;7.50;1.50;;;16.50;99.90;;;;;;5014997;28;20475;-50
2022/09/14 07:12:59;;;;;;;5.00;1.63;;;16.50;99.90;;;;;;5015107;28;20491;-52
2022/09/14 07:15:25;;;;;;;4.00;2.10;;;16.60;99.90;;;;;;5014719;28;20533;-54
2022/09/14 07:17:52;;;;;;;6.30;2.03;;;16.70;99.90;;;;;;5014881;28;20461;-55
2022/09/14 07:20:22;;;;;;;3.63;1.97;;;16.70;99.90;;;;;;5015700;28;20441;-54
2022/09/14 07:22:49;;;;;;;7.20;2.07;;;16.80;99.90;;;;;;5014797;28;20715;-52
2022/09/14 07:25:16;;;;;;;6.73;2.77;;;16.80;99.90;;;;;;5014732;28;20447;-48
2022/09/14 07:27:43;;;;;;;4.90;3.00;;;16.90;99.90;;;;;;5015247;28;20774;-52
2022/09/14 07:30:10;;;;;;;3.20;1.93;;;16.90;99.90;;;;;;5014984;28;20488;-57
2022/09/14 07:32:37;;;;;;;3.03;1.83;;;16.90;99.90;;;;;;5015169;28;20464;-53
2022/09/14 07:35:04;;;;;;;3.43;1.73;;;17.00;99.90;;;;;;5014962;28;20453;-55
2022/09/14 07:37:32;;;;;;;6.07;2.00;;;17.10;99.90;;;;;;5015295;28;20763;-51
2022/09/14 07:39:59;;;;;;;4.10;2.03;;;17.10;99.90;;;;;;5014805;28;20936;-48
2022/09/14 07:42:30;;;;;;;5.43;2.27;;;17.20;99.90;;;;;;5014693;28;20476;-48
2022/09/14 07:44:57;;;;;;;2.47;1.90;;;17.20;99.90;;;;;;5014676;28;20472;-50
2022/09/14 07:47:24;;;;;;;4.10;1.80;;;17.30;99.90;;;;;;5014378;28;20477;-53
2022/09/14 07:49:51;;;;;;;4.90;2.10;;;17.20;99.90;;;;;;5014595;28;20469;-53
2022/09/14 07:52:17;;;;;;;3.60;2.13;;;17.20;99.90;;;;;;5014660;28;20750;-49
2022/09/14 07:54:46;;;;;;;7.77;2.23;;;17.30;99.90;;;;;;5014663;28;20477;-54
2022/09/14 07:57:13;;;;;;;6.40;2.17;;;17.40;99.90;;;;;;5014600;28;20453;-52
2022/09/14 07:59:39;;;;;;;4.20;1.87;;;17.60;99.90;;;;;;5014791;28;20473;-52
2022/09/14 08:02:07;;;;;;;4.50;2.00;;;17.60;99.90;;;;;;5015984;28;20456;-51
2022/09/14 08:04:35;;;;;;;6.93;2.10;;;17.90;99.90;;;;;;5018034;28;20842;-50
2022/09/14 08:07:02;;;;;;;4.00;1.80;;;18.00;99.90;;;;;;5017853;28;20504;-54
2022/09/14 08:09:29;;;;;;;2.60;1.70;;;18.10;99.90;;;;;;5017893;28;20934;-50
2022/09/14 08:11:57;;;;;;;3.83;2.20;;;18.30;99.90;;;;;;5018080;28;20455;-54
2022/09/14 08:14:24;;;;;;;4.90;1.90;;;18.50;99.90;;;;;;5017625;28;20479;-55
2022/09/14 08:16:51;;;;;;;5.30;2.30;;;18.80;99.90;;;;;;5017614;28;20461;-50
2022/09/14 08:19:19;;;;;;;4.70;1.63;;;19.60;99.90;;;;;;5017504;28;20531;-54
2022/09/14 08:21:46;;;;;;;7.60;2.00;;;20.40;99.90;;;;;;5017860;28;20426;-54
2022/09/14 08:24:15;;;;;;;5.20;2.00;;;21.00;99.90;;;;;;5017450;28;20567;-56
2022/09/14 08:26:42;;;;;;;2.70;1.80;;;21.50;99.90;;;;;;5017487;28;20492;-55
2022/09/14 08:29:12;;;;;;;6.17;2.43;;;22.10;99.90;;;;;;5017398;28;20480;-54
2022/09/14 08:31:39;;;;;;;7.83;2.20;;;22.70;99.90;;;;;;5017645;28;20817;-56
2022/09/14 08:34:07;;;;;;;5.57;1.83;;;23.20;99.90;;;;;;5017410;28;20465;-52
2022/09/14 08:36:36;;;;;;;3.80;1.70;;;23.60;99.90;;;;;;5017436;28;20484;-53
2022/09/14 08:39:04;;;;;;;2.93;1.60;;;24.00;99.90;;;;;;5017106;28;20474;-52
2022/09/14 08:41:35;;;;;;;2.90;1.50;;;24.30;99.90;;;;;;5017165;28;20445;-55
2022/09/14 08:44:05;;;;;;;9.97;2.40;;;24.50;99.90;;;;;;5017044;28;20437;-51
2022/09/14 08:46:38;;;;;;;6.10;1.67;;;24.80;99.90;;;;;;5017332;28;20429;-53
2022/09/14 08:49:11;;;;;;;3.90;1.57;;;25.10;99.90;;;;;;5016889;28;20485;-52
2022/09/14 08:51:38;;;;;;;4.53;1.63;;;25.50;99.90;;;;;;5017002;28;20432;-52
2022/09/14 08:54:04;;;;;;;5.33;1.60;;;25.50;98.60;;;;;;5016896;28;20449;-50
2022/09/14 08:56:33;;;;;;;3.00;1.50;;;25.60;97.50;;;;;;5017052;28;20433;-58
2022/09/14 08:59:17;;;;;;;4.47;1.80;;;25.50;97.10;;;;;;5016984;28;20464;-52
2022/09/14 09:01:54;;;;;;;8.30;2.00;;;25.40;95.90;;;;;;5016940;28;20552;-54
2022/09/14 09:04:32;;;;;;;5.70;1.87;;;24.90;95.50;;;;;;5016945;28;20530;-53
2022/09/14 09:07:06;;;;;;;6.60;2.10;;;24.40;98.10;;;;;;5016530;28;20468;-51
2022/09/14 09:09:41;;;;;;;4.20;1.90;;;23.80;98.40;;;;;;5016704;28;20474;-53
2022/09/14 09:12:15;;;;;;;7.50;2.27;;;23.10;98.70;;;;;;5016826;28;20444;-57
2022/09/14 09:14:46;;;;;;;6.37;1.73;;;22.40;99.90;;;;;;5016873;28;20531;-54
2022/09/14 09:17:17;;;;;;;4.00;1.80;;;21.90;99.90;;;;;;5016836;28;20465;-54
2022/09/14 09:20:04;;;;;;;3.93;1.43;;;21.30;99.90;;;;;;5016756;28;20484;-49
2022/09/14 09:22:38;;;;;;;2.13;1.30;;;20.90;99.90;;;;;;5016616;28;20731;-52
2022/09/14 09:25:10;;;;;;;4.33;2.03;;;20.70;99.90;;;;;;5017040;28;20469;-49
2022/09/14 09:27:37;;;;;;;2.77;1.93;;;20.60;99.90;;;;;;5018141;28;20469;-55
2022/09/14 09:30:05;;;;;;;6.00;1.77;;;20.40;99.90;;;;;;5017633;28;20483;-52
2022/09/14 09:32:36;;;;;;;7.50;2.23;;;20.30;99.90;;;;;;5017364;28;20457;-52
2022/09/14 09:35:05;;;;;;;2.33;1.33;;;20.50;99.90;;;;;;5016312;28;20485;-49
2022/09/14 09:37:37;;;;;;;4.70;1.57;;;20.60;99.90;;;;;;5016137;28;20936;-51
2022/09/14 09:40:14;;;;;;;5.53;1.93;;;20.70;99.90;;;;;;5016303;28;20585;-49
2022/09/14 09:43:06;;;;;;;4.57;1.60;;;20.80;99.90;;;;;;5016149;28;20437;-47
2022/09/14 09:45:48;;;;;;;2.90;2.23;;;21.00;99.90;;;;;;5016124;28;20539;-54
2022/09/14 09:48:17;;;;;;;2.03;1.83;;;21.30;99.90;;;;;;5015540;28;20469;-45
2022/09/14 09:50:49;;;;;;;3.60;1.70;;;21.80;99.90;;;;;;5015682;28;20544;-55
2022/09/14 09:53:18;;;;;;;4.73;1.80;;;22.30;99.90;;;;;;5015906;28;20433;-51
2022/09/14 09:55:48;;;;;;;2.07;1.70;;;22.50;99.90;;;;;;5015968;28;20496;-53
2022/09/14 09:58:28;;;;;;;3.13;1.60;;;22.40;99.90;;;;;;5016094;28;20441;-54
2022/09/14 10:00:57;;;;;;;2.10;1.90;;;22.10;99.90;;;;;;5015979;28;20472;-52
2022/09/14 10:03:33;;;;;;;3.17;1.57;;;21.90;99.90;;;;;;5015777;28;20485;-57
2022/09/14 10:06:02;;;;;;;5.90;1.60;;;21.70;99.90;;;;;;5015653;28;20473;-50
2022/09/14 10:08:33;;;;;;;5.00;1.90;;;21.30;99.90;;;;;;5015781;28;20491;-48
2022/09/14 10:11:01;;;;;;;6.33;1.90;;;21.00;99.90;;;;;;5015603;28;20879;-50
2022/09/14 10:13:31;;;;;;;3.60;1.40;;;21.00;99.90;;;;;;5015635;28;20468;-51
2022/09/14 10:16:13;;;;;;;5.27;1.63;;;20.90;99.90;;;;;;5015567;28;20481;-46
2022/09/14 10:18:44;;;;;;;6.03;1.70;;;20.70;99.90;;;;;;5015776;28;20750;-51
2022/09/14 10:21:12;;;;;;;4.30;1.63;;;20.60;99.90;;;;;;5015609;28;20476;-49
2022/09/14 10:23:39;;;;;;;4.40;1.63;;;20.50;99.90;;;;;;5015484;28;20467;-53
2022/09/14 10:26:27;;;;;;;2.40;1.40;;;20.50;99.90;;;;;;5014868;28;20480;-51
2022/09/14 10:29:34;;;;;;;3.50;2.00;;;20.60;99.90;;;;;;5015391;28;20476;-51
2022/09/14 10:32:11;;;;;;;2.67;1.50;;;20.80;99.90;;;;;;5015744;28;20455;-51
2022/09/14 10:34:38;;;;;;;3.17;1.80;;;20.90;99.90;;;;;;5015277;28;20435;-55
2022/09/14 10:37:23;;;;;;;3.43;1.43;;;21.00;99.90;;;;;;5015445;28;20464;-50
2022/09/14 10:40:05;;;;;;;8.30;1.80;;;21.20;99.90;;;;;;5015156;28;20437;-52
2022/09/14 10:42:37;;;;;;;1.87;1.20;;;21.40;99.90;;;;;;5015556;28;20452;-52
2022/09/14 10:45:16;;;;;;;2.27;1.77;;;21.70;99.90;;;;;;5015366;28;20461;-54
2022/09/14 10:48:17;;;;;;;2.77;1.60;;;22.00;99.90;;;;;;5015275;28;20494;-53
2022/09/14 10:50:54;;;;;;;5.57;1.43;;;22.20;99.90;;;;;;5015025;28;20475;-53
2022/09/14 10:53:36;;;;;;;2.87;1.53;;;22.30;99.90;;;;;;5015190;28;20445;-50
2022/09/14 10:56:09;;;;;;;1.77;1.20;;;22.50;99.90;;;;;;5014817;28;20468;-54
2022/09/14 10:59:05;;;;;;;6.03;2.53;;;22.80;99.90;;;;;;5015200;28;20504;-50
2022/09/14 11:02:03;;;;;;;8.10;1.47;;;22.90;99.90;;;;;;5014877;28;20488;-49
2022/09/14 11:04:57;;;;;;;3.03;1.73;;;23.00;99.90;;;;;;5014837;28;20480;-56
2022/09/14 11:07:31;;;;;;;4.40;1.80;;;22.90;99.10;;;;;;5015148;28;20809;-53
2022/09/14 11:10:10;;;;;;;3.83;1.40;;;23.00;98.80;;;;;;5014980;28;20429;-53
2022/09/14 11:12:45;;;;;;;3.80;1.53;;;22.90;99.90;;;;;;5015174;28;20727;-53
2022/09/14 11:15:23;;;;;;;6.53;1.50;;;22.90;98.20;;;;;;5014741;28;20428;-54
2022/09/14 11:18:04;;;;;;;3.10;1.70;;;22.60;97.50;;;;;;5015067;28;20452;-52
2022/09/14 11:20:43;;;;;;;2.23;1.30;;;22.30;99.90;;;;;;5014867;28;20476;-54
2022/09/14 11:23:23;;;;;;;3.20;2.00;;;22.20;99.90;;;;;;5014930;28;20888;-52
2022/09/14 11:25:54;;;;;;;2.77;1.47;;;22.10;99.90;;;;;;5014660;28;20477;-55
2022/09/14 11:28:25;;;;;;;2.53;1.23;;;21.90;99.90;;;;;;5014629;28;20469;-51
2022/09/14 11:30:56;;;;;;;4.70;1.17;;;21.80;99.90;;;;;;5014820;28;20484;-51
2022/09/14 11:33:31;;;;;;;3.00;1.37;;;21.80;99.90;;;;;;5014989;28;20463;-54
2022/09/14 11:36:03;;;;;;;3.30;1.40;;;21.70;99.90;;;;;;5014782;28;20468;-53
2022/09/14 11:38:35;;;;;;;3.90;1.63;;;21.50;99.90;;;;;;5018414;28;20758;-49
2022/09/14 11:41:13;;;;;;;2.10;1.53;;;21.40;99.90;;;;;;5018667;28;20503;-51
2022/09/14 11:43:47;;;;;;;4.30;1.70;;;21.30;99.90;;;;;;5018522;28;20824;-52
2022/09/14 11:46:18;;;;;;;2.47;1.50;;;21.30;99.90;;;;;;5018576;28;20495;-55
2022/09/14 11:48:53;;;;;;;4.47;1.70;;;21.30;99.90;;;;;;5018907;28;20469;-48
2022/09/14 11:51:34;;;;;;;2.70;1.30;;;21.30;99.90;;;;;;5018523;28;20468;-54
2022/09/14 11:54:01;;;;;;;4.40;1.30;;;21.20;99.90;;;;;;5018048;28;20441;-44
2022/09/14 11:56:30;;;;;;;2.27;1.50;;;21.10;99.90;;;;;;5018213;28;20491;-50
2022/09/14 11:58:59;;;;;;;2.47;1.50;;;21.20;99.90;;;;;;5018061;28;20444;-49
2022/09/14 12:01:34;;;;;;;1.80;1.50;;;21.30;99.90;;;;;;5018039;28;20469;-53
2022/09/14 12:04:18;;;;;;;4.13;1.40;;;21.30;99.90;;;;;;5018352;28;20499;-56
2022/09/14 12:06:53;;;;;;;1.77;1.30;;;21.10;99.90;;;;;;5018052;28;20475;-56
2022/09/14 12:09:44;;;;;;;3.80;1.73;;;21.00;99.90;;;;;;5017949;28;20496;-56
2022/09/14 12:12:38;;;;;;;2.97;1.53;;;20.90;99.90;;;;;;5017603;28;20441;-51
2022/09/14 12:15:20;;;;;;;2.90;2.17;;;20.90;99.90;;;;;;4983388;28;20473;-49
2022/09/14 12:17:48;;;;;;;2.53;1.03;;;20.80;99.90;;;;;;5018514;28;20476;-53
2022/09/14 12:20:37;;;;;;;4.13;1.40;;;20.80;99.90;;;;;;5019040;28;20476;-54
2022/09/14 12:23:13;;;;;;;2.70;1.20;;;20.60;99.90;;;;;;5018706;28;20434;-49
2022/09/14 12:25:54;;;;;;;5.80;1.90;;;20.60;99.90;;;;;;5017672;28;20463;-55
2022/09/14 12:28:46;;;;;;;2.33;1.37;;;20.60;99.90;;;;;;5017645;28;20481;-50
2022/09/14 12:31:58;;;;;;;2.70;1.30;;;20.60;99.90;;;;;;5017558;28;20576;-53
2022/09/14 12:34:26;;;;;;;4.90;1.50;;;20.60;99.90;;;;;;5017593;28;20449;-51
2022/09/14 12:37:28;;;;;;;1.73;1.10;;;20.60;99.90;;;;;;5017291;28;20477;-49
2022/09/14 12:40:35;;;;;;;3.83;1.53;;;20.60;99.90;;;;;;5017867;28;20431;-51
2022/09/14 12:43:49;;;;;;;3.03;1.20;;;20.70;99.90;;;;;;5018312;28;20495;-54
2022/09/14 12:46:39;;;;;;;2.77;1.37;;;20.60;99.90;;;;;;5000685;28;20473;-51
2022/09/14 12:49:36;;;;;;;1.40;1.00;;;20.70;99.90;;;;;;5017496;28;20905;-56
2022/09/14 12:52:25;;;;;;;4.53;2.50;;;20.70;99.90;;;;;;5006040;28;20449;-62
2022/09/14 12:55:26;;;;;;;3.63;1.67;;;20.70;99.90;;;;;;5018882;28;20429;-51
2022/09/14 12:58:03;;;;;;;4.30;1.07;;;20.60;99.90;;;;;;5014975;28;20456;-52
2022/09/14 13:00:34;;;;;;;6.73;1.40;;;20.60;99.90;;;;;;5017489;28;20540;-58
2022/09/14 13:03:42;;;;;;;2.67;1.27;;;20.70;99.90;;;;;;5016965;28;20928;-51
2022/09/14 13:06:11;;;;;;;6.67;1.83;;;20.80;99.90;;;;;;5016934;28;20950;-48
2022/09/14 13:08:39;;;;;;;2.73;1.30;;;21.00;99.90;;;;;;5016735;28;20800;-44
2022/09/14 13:11:07;;;;;;;5.30;1.50;;;21.00;99.90;;;;;;5016586;28;20536;-54
2022/09/14 13:13:34;;;;;;;5.60;1.23;;;20.90;99.90;;;;;;5016886;28;20441;-49